sensor_id;sensor_type;location;lat;lon;timestamp;pressure;altitude;pressure_sealevel;temperature;humidity
50590;BME280;36547;50.514;30.840;2023-05-24T00:00:07;99840.27;;;16.37;66.72
50590;BME280;36547;50.514;30.840;2023-05-24T00:01:09;99839.91;;;16.42;66.84
50590;BME280;36547;50.514;30.840;2023-05-24T00:02:11;99841.00;;;16.39;66.87
50590;BME280;36547;50.514;30.840;2023-05-24T00:03:14;99841.37;;;16.35;66.77
50590;BME280;36547;50.514;30.840;2023-05-24T00:04:16;99837.95;;;16.33;66.99
50590;BME280;36547;50.514;30.840;2023-05-24T00:05:18;99836.98;;;16.34;66.87
50590;BME280;36547;50.514;30.840;2023-05-24T00:06:21;99838.80;;;16.33;67.14
50590;BME280;36547;50.514;30.840;2023-05-24T00:07:23;99837.47;;;16.39;66.85
50590;BME280;36547;50.514;30.840;2023-05-24T00:08:26;99835.76;;;16.38;66.70
50590;BME280;36547;50.514;30.840;2023-05-24T00:09:30;99840.75;;;16.31;67.14
50590;BME280;36547;50.514;30.840;2023-05-24T00:10:39;99838.94;;;16.43;67.05
50590;BME280;36547;50.514;30.840;2023-05-24T00:11:41;99842.25;;;16.13;67.87
50590;BME280;36547;50.514;30.840;2023-05-24T00:12:44;99838.08;;;16.20;67.85
50590;BME280;36547;50.514;30.840;2023-05-24T00:13:47;99839.67;;;16.22;67.56
50590;BME280;36547;50.514;30.840;2023-05-24T00:14:50;99841.63;;;16.20;67.65
50590;BME280;36547;50.514;30.840;2023-05-24T00:15:52;99838.94;;;16.20;67.79
50590;BME280;36547;50.514;30.840;2023-05-24T00:16:55;99837.84;;;16.23;67.62
50590;BME280;36547;50.514;30.840;2023-05-24T00:17:57;99837.73;;;16.24;67.55
50590;BME280;36547;50.514;30.840;2023-05-24T00:19:00;99843.09;;;16.24;67.35
50590;BME280;36547;50.514;30.840;2023-05-24T00:20:02;99838.70;;;16.23;67.39
50590;BME280;36547;50.514;30.840;2023-05-24T00:21:07;99840.29;;;16.26;67.28
50590;BME280;36547;50.514;30.840;2023-05-24T00:22:09;99847.72;;;16.22;67.97
50590;BME280;36547;50.514;30.840;2023-05-24T00:23:11;99842.59;;;16.19;67.68
50590;BME280;36547;50.514;30.840;2023-05-24T00:24:14;99842.35;;;16.22;67.65
50590;BME280;36547;50.514;30.840;2023-05-24T00:25:16;99840.53;;;16.23;67.76
50590;BME280;36547;50.514;30.840;2023-05-24T00:26:18;99839.55;;;16.24;67.98
50590;BME280;36547;50.514;30.840;2023-05-24T00:27:23;99840.29;;;16.26;68.05
50590;BME280;36547;50.514;30.840;2023-05-24T00:28:27;99844.80;;;16.25;68.23
50590;BME280;36547;50.514;30.840;2023-05-24T00:29:30;99841.38;;;16.23;68.27
50590;BME280;36547;50.514;30.840;2023-05-24T00:30:35;99843.45;;;16.20;68.06
50590;BME280;36547;50.514;30.840;2023-05-24T00:31:37;99841.63;;;16.20;68.34
50590;BME280;36547;50.514;30.840;2023-05-24T00:32:40;99836.26;;;16.20;68.54
50590;BME280;36547;50.514;30.840;2023-05-24T00:33:42;99842.59;;;16.19;68.42
50590;BME280;36547;50.514;30.840;2023-05-24T00:34:44;99836.38;;;16.19;68.07
50590;BME280;36547;50.514;30.840;2023-05-24T00:35:47;99836.26;;;16.20;68.02
50590;BME280;36547;50.514;30.840;2023-05-24T00:36:49;99836.26;;;16.20;68.12
50590;BME280;36547;50.514;30.840;2023-05-24T00:37:51;99838.70;;;16.23;68.09
50590;BME280;36547;50.514;30.840;2023-05-24T00:38:54;99836.99;;;16.22;68.22
50590;BME280;36547;50.514;30.840;2023-05-24T00:39:56;99841.38;;;16.23;68.46
50590;BME280;36547;50.514;30.840;2023-05-24T00:40:58;99839.80;;;16.21;68.43
50590;BME280;36547;50.514;30.840;2023-05-24T00:42:01;99844.30;;;16.20;68.64
50590;BME280;36547;50.514;30.840;2023-05-24T00:43:04;99842.83;;;16.16;68.59
50590;BME280;36547;50.514;30.840;2023-05-24T00:44:07;99849.90;;;16.17;68.77
50590;BME280;36547;50.514;30.840;2023-05-24T00:45:09;99854.41;;;16.17;68.72
50590;BME280;36547;50.514;30.840;2023-05-24T00:46:18;99849.66;;;16.20;68.69
50590;BME280;36547;50.514;30.840;2023-05-24T00:47:22;99850.02;;;16.16;68.74
50590;BME280;36547;50.514;30.840;2023-05-24T00:48:25;99856.00;;;16.19;68.65
50590;BME280;36547;50.514;30.840;2023-05-24T00:49:28;99846.25;;;16.18;68.52
50590;BME280;36547;50.514;30.840;2023-05-24T00:50:31;99856.97;;;16.18;68.49
50590;BME280;36547;50.514;30.840;2023-05-24T00:51:33;99841.98;;;16.16;68.70
50590;BME280;36547;50.514;30.840;2023-05-24T00:52:37;99843.69;;;16.17;68.94
50590;BME280;36547;50.514;30.840;2023-05-24T00:53:41;99846.86;;;16.22;68.85
50590;BME280;36547;50.514;30.840;2023-05-24T00:54:45;99848.93;;;16.18;68.82
50590;BME280;36547;50.514;30.840;2023-05-24T00:55:48;99845.66;;;16.15;68.70
50590;BME280;36547;50.514;30.840;2023-05-24T00:56:51;99849.20;;;16.15;68.64
50590;BME280;36547;50.514;30.840;2023-05-24T00:57:57;99846.25;;;16.18;68.61
50590;BME280;36547;50.514;30.840;2023-05-24T00:59:00;99851.88;;;16.15;68.98
50590;BME280;36547;50.514;30.840;2023-05-24T01:00:06;99851.73;;;16.17;68.96
50590;BME280;36547;50.514;30.840;2023-05-24T01:01:09;99850.17;;;16.14;69.26
50590;BME280;36547;50.514;30.840;2023-05-24T01:02:11;99850.88;;;16.16;69.05
50590;BME280;36547;50.514;30.840;2023-05-24T01:03:15;99847.34;;;16.16;68.80
50590;BME280;36547;50.514;30.840;2023-05-24T01:04:18;99852.58;;;16.17;68.72
50590;BME280;36547;50.514;30.840;2023-05-24T01:05:21;99853.44;;;16.18;68.67
50590;BME280;36547;50.514;30.840;2023-05-24T01:06:24;99854.56;;;16.15;69.13
50590;BME280;36547;50.514;30.840;2023-05-24T01:07:32;99847.10;;;16.19;68.87
50590;BME280;36547;50.514;30.840;2023-05-24T01:11:37;99846.14;;;16.09;69.03
50590;BME280;36547;50.514;30.840;2023-05-24T01:13:03;99840.54;;;16.12;69.07
50590;BME280;36547;50.514;30.840;2023-05-24T01:16:01;99846.52;;;16.15;68.96
50590;BME280;36547;50.514;30.840;2023-05-24T01:18:41;99850.52;;;16.21;68.60
50590;BME280;36547;50.514;30.840;2023-05-24T01:22:23;99851.61;;;16.18;69.01
50590;BME280;36547;50.514;30.840;2023-05-24T01:23:50;99854.05;;;16.21;68.84
50590;BME280;36547;50.514;30.840;2023-05-24T01:25:22;99854.68;;;16.14;68.90
50590;BME280;36547;50.514;30.840;2023-05-24T01:26:36;99856.23;;;16.16;68.81
50590;BME280;36547;50.514;30.840;2023-05-24T01:27:41;99853.32;;;16.19;68.64
50590;BME280;36547;50.514;30.840;2023-05-24T01:28:47;99859.06;;;16.15;68.64
50590;BME280;36547;50.514;30.840;2023-05-24T01:29:49;99862.61;;;16.15;68.81
50590;BME280;36547;50.514;30.840;2023-05-24T01:30:53;99858.45;;;16.11;68.75
50590;BME280;36547;50.514;30.840;2023-05-24T01:31:58;99857.24;;;16.15;68.56
50590;BME280;36547;50.514;30.840;2023-05-24T01:33:01;99852.12;;;16.12;68.76
50590;BME280;36547;50.514;30.840;2023-05-24T01:34:03;99857.48;;;16.12;68.82
50590;BME280;36547;50.514;30.840;2023-05-24T01:35:06;99855.77;;;16.11;69.07
50590;BME280;36547;50.514;30.840;2023-05-24T01:36:11;99853.95;;;16.12;69.12
50590;BME280;36547;50.514;30.840;2023-05-24T01:37:14;99858.57;;;16.10;69.11
50590;BME280;36547;50.514;30.840;2023-05-24T01:38:16;99863.31;;;16.06;69.33
50590;BME280;36547;50.514;30.840;2023-05-24T01:39:19;99860.98;;;16.02;69.29
50590;BME280;36547;50.514;30.840;2023-05-24T01:40:22;99855.63;;;16.02;69.15
50590;BME280;36547;50.514;30.840;2023-05-24T01:42:55;99851.88;;;16.15;69.25
50590;BME280;36547;50.514;30.840;2023-05-24T01:44:08;99853.20;;;16.10;69.34
50590;BME280;36547;50.514;30.840;2023-05-24T01:46:38;99854.53;;;15.93;69.81
50590;BME280;36547;50.514;30.840;2023-05-24T01:51:21;99854.30;;;15.96;69.93
50590;BME280;36547;50.514;30.840;2023-05-24T01:52:27;99856.98;;;15.96;70.05
50590;BME280;36547;50.514;30.840;2023-05-24T01:54:51;99867.82;;;16.06;69.99
50590;BME280;36547;50.514;30.840;2023-05-24T01:55:56;99855.74;;;15.89;69.99
50590;BME280;36547;50.514;30.840;2023-05-24T01:57:03;99864.28;;;15.94;69.61
50590;BME280;36547;50.514;30.840;2023-05-24T01:58:08;99861.61;;;15.94;69.51
50590;BME280;36547;50.514;30.840;2023-05-24T01:59:12;99864.28;;;15.94;69.71
50590;BME280;36547;50.514;30.840;2023-05-24T02:00:17;99861.61;;;15.94;70.08
50590;BME280;36547;50.514;30.840;2023-05-24T02:01:21;99859.04;;;15.93;70.15
50590;BME280;36547;50.514;30.840;2023-05-24T02:02:23;99861.48;;;15.96;69.86
50590;BME280;36547;50.514;30.840;2023-05-24T02:03:26;99858.69;;;15.97;69.71
50590;BME280;36547;50.514;30.840;2023-05-24T02:04:30;99863.20;;;15.97;69.84
50590;BME280;36547;50.514;30.840;2023-05-24T02:05:32;99856.01;;;15.97;69.85
50590;BME280;36547;50.514;30.840;2023-05-24T02:06:37;99860.63;;;15.95;70.14
50590;BME280;36547;50.514;30.840;2023-05-24T02:07:41;99860.40;;;15.98;70.12
50590;BME280;36547;50.514;30.840;2023-05-24T02:08:43;99854.19;;;15.98;70.07
50590;BME280;36547;50.514;30.840;2023-05-24T02:09:45;99855.03;;;15.98;70.05
50590;BME280;36547;50.514;30.840;2023-05-24T02:10:48;99855.63;;;16.02;70.08
50590;BME280;36547;50.514;30.840;2023-05-24T02:11:52;99860.98;;;16.02;70.04
50590;BME280;36547;50.514;30.840;2023-05-24T02:12:54;99860.75;;;16.05;70.04
50590;BME280;36547;50.514;30.840;2023-05-24T02:13:57;99862.23;;;16.09;70.08
50590;BME280;36547;50.514;30.840;2023-05-24T02:14:59;99866.50;;;16.11;70.00
50590;BME280;36547;50.514;30.840;2023-05-24T02:16:01;99863.58;;;16.14;70.08
50590;BME280;36547;50.514;30.840;2023-05-24T02:17:04;99865.28;;;16.15;70.06
50590;BME280;36547;50.514;30.840;2023-05-24T02:18:06;99867.97;;;16.15;70.35
50590;BME280;36547;50.514;30.840;2023-05-24T02:19:09;99866.27;;;16.14;69.89
50590;BME280;36547;50.514;30.840;2023-05-24T02:20:14;99866.96;;;16.16;70.01
50590;BME280;36547;50.514;30.840;2023-05-24T02:21:16;99867.22;;;16.24;69.73
50590;BME280;36547;50.514;30.840;2023-05-24T02:22:19;99865.75;;;16.20;69.76
50590;BME280;36547;50.514;30.840;2023-05-24T02:23:21;99861.86;;;16.24;70.01
50590;BME280;36547;50.514;30.840;2023-05-24T02:24:24;99865.28;;;16.26;69.90
50590;BME280;36547;50.514;30.840;2023-05-24T02:25:26;99864.03;;;16.31;69.58
50590;BME280;36547;50.514;30.840;2023-05-24T02:26:29;99867.45;;;16.33;69.20
50590;BME280;36547;50.514;30.840;2023-05-24T02:27:32;99873.55;;;16.35;68.83
50590;BME280;36547;50.514;30.840;2023-05-24T02:28:35;99878.67;;;16.38;68.87
50590;BME280;36547;50.514;30.840;2023-05-24T02:29:39;99874.78;;;16.42;68.72
50590;BME280;36547;50.514;30.840;2023-05-24T02:30:41;99879.17;;;16.43;68.86
50590;BME280;36547;50.514;30.840;2023-05-24T02:31:44;99877.46;;;16.42;69.16
50590;BME280;36547;50.514;30.840;2023-05-24T02:32:47;99885.51;;;16.42;69.26
50590;BME280;36547;50.514;30.840;2023-05-24T02:33:49;99887.45;;;16.40;69.59
50590;BME280;36547;50.514;30.840;2023-05-24T02:34:52;99883.56;;;16.44;69.63
50590;BME280;36547;50.514;30.840;2023-05-24T02:35:55;99884.27;;;16.46;69.18
50590;BME280;36547;50.514;30.840;2023-05-24T02:36:57;99876.37;;;16.44;69.10
50590;BME280;36547;50.514;30.840;2023-05-24T02:38:00;99881.85;;;16.43;69.19
50590;BME280;36547;50.514;30.840;2023-05-24T02:39:02;99882.09;;;16.40;69.22
50590;BME280;36547;50.514;30.840;2023-05-24T02:40:06;99880.38;;;16.39;69.26
50590;BME280;36547;50.514;30.840;2023-05-24T02:41:08;99883.30;;;16.36;69.35
50590;BME280;36547;50.514;30.840;2023-05-24T02:42:11;99881.59;;;16.35;69.47
50590;BME280;36547;50.514;30.840;2023-05-24T02:43:13;99883.30;;;16.36;69.60
50590;BME280;36547;50.514;30.840;2023-05-24T02:44:16;99887.20;;;16.32;69.74
50590;BME280;36547;50.514;30.840;2023-05-24T02:45:18;99882.56;;;16.34;69.95
50590;BME280;36547;50.514;30.840;2023-05-24T02:46:20;99893.41;;;16.32;69.87
50590;BME280;36547;50.514;30.840;2023-05-24T02:47:23;99883.54;;;16.33;69.83
50590;BME280;36547;50.514;30.840;2023-05-24T02:48:25;99882.56;;;16.34;69.86
50590;BME280;36547;50.514;30.840;2023-05-24T02:49:28;99882.56;;;16.34;69.79
50590;BME280;36547;50.514;30.840;2023-05-24T02:50:30;99884.16;;;16.36;69.77
50590;BME280;36547;50.514;30.840;2023-05-24T02:51:32;99882.56;;;16.34;70.16
50590;BME280;36547;50.514;30.840;2023-05-24T02:52:35;99877.33;;;16.32;70.68
50590;BME280;36547;50.514;30.840;2023-05-24T02:53:37;99878.91;;;16.35;70.19
50590;BME280;36547;50.514;30.840;2023-05-24T02:54:39;99881.98;;;16.30;69.87
50590;BME280;36547;50.514;30.840;2023-05-24T02:55:41;99879.15;;;16.32;70.06
50590;BME280;36547;50.514;30.840;2023-05-24T02:56:43;99887.94;;;16.34;70.21
50590;BME280;36547;50.514;30.840;2023-05-24T02:57:48;99885.98;;;16.36;69.63
50590;BME280;36547;50.514;30.840;2023-05-24T02:58:50;99887.08;;;16.33;69.30
50590;BME280;36547;50.514;30.840;2023-05-24T02:59:52;99884.28;;;16.35;69.51
50590;BME280;36547;50.514;30.840;2023-05-24T03:00:55;99882.33;;;16.37;69.73
50590;BME280;36547;50.514;30.840;2023-05-24T03:01:57;99881.59;;;16.35;69.97
50590;BME280;36547;50.514;30.840;2023-05-24T03:03:00;99882.09;;;16.40;70.02
50590;BME280;36547;50.514;30.840;2023-05-24T03:04:03;99884.04;;;16.38;69.86
50590;BME280;36547;50.514;30.840;2023-05-24T03:05:06;99883.06;;;16.39;69.80
50590;BME280;36547;50.514;30.840;2023-05-24T03:06:09;99882.95;;;16.40;69.98
50590;BME280;36547;50.514;30.840;2023-05-24T03:07:11;99882.70;;;16.43;70.32
50590;BME280;36547;50.514;30.840;2023-05-24T03:08:14;99881.85;;;16.43;70.37
50590;BME280;36547;50.514;30.840;2023-05-24T03:09:17;99879.17;;;16.43;70.50
50590;BME280;36547;50.514;30.840;2023-05-24T03:10:19;99877.34;;;16.43;70.40
50590;BME280;36547;50.514;30.840;2023-05-24T03:11:22;99879.87;;;16.45;70.11
50590;BME280;36547;50.514;30.840;2023-05-24T03:12:25;99882.70;;;16.43;70.50
50590;BME280;36547;50.514;30.840;2023-05-24T03:13:28;99880.73;;;16.45;70.31
50590;BME280;36547;50.514;30.840;2023-05-24T03:14:30;99880.88;;;16.44;70.31
50590;BME280;36547;50.514;30.840;2023-05-24T03:15:33;99876.09;;;16.47;70.21
50590;BME280;36547;50.514;30.840;2023-05-24T03:16:36;99872.31;;;16.50;70.18
50590;BME280;36547;50.514;30.840;2023-05-24T03:17:39;99880.98;;;16.53;70.08
50590;BME280;36547;50.514;30.840;2023-05-24T03:18:41;99880.86;;;16.55;69.57
50590;BME280;36547;50.514;30.840;2023-05-24T03:19:43;99887.69;;;16.59;69.05
50590;BME280;36547;50.514;30.840;2023-05-24T03:20:47;99884.00;;;16.60;68.94
50590;BME280;36547;50.514;30.840;2023-05-24T03:21:49;99885.50;;;16.64;69.22
50590;BME280;36547;50.514;30.840;2023-05-24T03:22:52;99886.11;;;16.68;69.05
50590;BME280;36547;50.514;30.840;2023-05-24T03:23:55;99885.99;;;16.69;69.08
50590;BME280;36547;50.514;30.840;2023-05-24T03:24:57;99879.41;;;16.73;69.42
50590;BME280;36547;50.514;30.840;2023-05-24T03:26:00;99884.16;;;16.70;69.65
50590;BME280;36547;50.514;30.840;2023-05-24T03:27:05;99889.29;;;16.73;69.56
50590;BME280;36547;50.514;30.840;2023-05-24T03:28:07;99887.70;;;16.70;69.33
50590;BME280;36547;50.514;30.840;2023-05-24T03:29:09;99886.84;;;16.70;69.34
50590;BME280;36547;50.514;30.840;2023-05-24T03:30:14;99888.44;;;16.72;69.62
50590;BME280;36547;50.514;30.840;2023-05-24T03:31:19;99885.59;;;16.74;69.71
50590;BME280;36547;50.514;30.840;2023-05-24T03:32:22;99887.45;;;16.73;69.45
50590;BME280;36547;50.514;30.840;2023-05-24T03:33:25;99885.88;;;16.71;70.21
50590;BME280;36547;50.514;30.840;2023-05-24T03:34:27;99882.22;;;16.72;70.09
50590;BME280;36547;50.514;30.840;2023-05-24T03:35:29;99890.27;;;16.72;69.56
50590;BME280;36547;50.514;30.840;2023-05-24T03:36:32;99884.77;;;16.73;69.54
50590;BME280;36547;50.514;30.840;2023-05-24T03:37:34;99889.98;;;16.75;69.79
50590;BME280;36547;50.514;30.840;2023-05-24T03:38:37;99890.72;;;16.77;69.88
50590;BME280;36547;50.514;30.840;2023-05-24T03:39:39;99886.08;;;16.79;69.77
50590;BME280;36547;50.514;30.840;2023-05-24T03:40:49;99885.11;;;16.80;69.74
50590;BME280;36547;50.514;30.840;2023-05-24T03:41:52;99881.81;;;16.76;69.78
50590;BME280;36547;50.514;30.840;2023-05-24T03:42:55;99876.08;;;16.81;69.90
50590;BME280;36547;50.514;30.840;2023-05-24T03:43:59;99880.72;;;16.79;69.60
50590;BME280;36547;50.514;30.840;2023-05-24T03:45:04;99885.96;;;16.80;69.40
50590;BME280;36547;50.514;30.840;2023-05-24T03:46:07;99882.30;;;16.81;69.06
50590;BME280;36547;50.514;30.840;2023-05-24T03:47:09;99881.33;;;16.82;69.00
50590;BME280;36547;50.514;30.840;2023-05-24T03:48:12;99884.87;;;16.83;68.98
50590;BME280;36547;50.514;30.840;2023-05-24T03:49:14;99884.87;;;16.83;68.81
50590;BME280;36547;50.514;30.840;2023-05-24T03:50:16;99883.03;;;16.83;68.60
50590;BME280;36547;50.514;30.840;2023-05-24T03:51:19;99886.57;;;16.84;68.87
50590;BME280;36547;50.514;30.840;2023-05-24T03:52:23;99885.48;;;16.86;69.19
50590;BME280;36547;50.514;30.840;2023-05-24T03:53:25;99893.65;;;16.85;69.55
50590;BME280;36547;50.514;30.840;2023-05-24T03:54:28;99891.82;;;16.85;69.18
50590;BME280;36547;50.514;30.840;2023-05-24T03:55:31;99887.42;;;16.84;68.96
50590;BME280;36547;50.514;30.840;2023-05-24T03:56:33;99882.91;;;16.85;69.39
50590;BME280;36547;50.514;30.840;2023-05-24T03:57:36;99892.80;;;16.84;69.78
50590;BME280;36547;50.514;30.840;2023-05-24T03:58:38;99884.02;;;16.82;69.90
50590;BME280;36547;50.514;30.840;2023-05-24T03:59:41;99892.19;;;16.81;69.59
50590;BME280;36547;50.514;30.840;2023-05-24T04:00:43;99898.53;;;16.80;69.12
50590;BME280;36547;50.514;30.840;2023-05-24T04:01:47;99901.22;;;16.80;69.04
50590;BME280;36547;50.514;30.840;2023-05-24T04:02:49;99900.36;;;16.79;69.68
50590;BME280;36547;50.514;30.840;2023-05-24T04:03:52;99902.06;;;16.80;69.62
50590;BME280;36547;50.514;30.840;2023-05-24T04:04:54;99901.22;;;16.80;69.49
50590;BME280;36547;50.514;30.840;2023-05-24T04:05:57;99894.98;;;16.79;69.42
50590;BME280;36547;50.514;30.840;2023-05-24T04:06:59;99893.04;;;16.81;69.25
50590;BME280;36547;50.514;30.840;2023-05-24T04:08:02;99891.20;;;16.82;69.19
50590;BME280;36547;50.514;30.840;2023-05-24T04:09:04;99897.67;;;16.79;69.16
50590;BME280;36547;50.514;30.840;2023-05-24T04:10:07;99902.19;;;16.79;69.81
50590;BME280;36547;50.514;30.840;2023-05-24T04:11:09;99899.27;;;16.82;69.78
50590;BME280;36547;50.514;30.840;2023-05-24T04:12:12;99902.80;;;16.82;69.55
50590;BME280;36547;50.514;30.840;2023-05-24T04:13:16;99895.60;;;16.83;69.38
50590;BME280;36547;50.514;30.840;2023-05-24T04:14:18;99898.28;;;16.83;68.99
50590;BME280;36547;50.514;30.840;2023-05-24T04:15:21;99900.36;;;16.79;68.58
50590;BME280;36547;50.514;30.840;2023-05-24T04:16:24;99895.84;;;16.80;68.85
50590;BME280;36547;50.514;30.840;2023-05-24T04:17:27;99901.34;;;16.78;68.84
50590;BME280;36547;50.514;30.840;2023-05-24T04:18:30;99900.60;;;16.76;68.94
50590;BME280;36547;50.514;30.840;2023-05-24T04:19:32;99904.02;;;16.78;69.44
50590;BME280;36547;50.514;30.840;2023-05-24T04:20:34;99899.27;;;16.82;69.41
50590;BME280;36547;50.514;30.840;2023-05-24T04:21:37;99898.41;;;16.81;69.38
50590;BME280;36547;50.514;30.840;2023-05-24T04:22:40;99905.73;;;16.79;69.85
50590;BME280;36547;50.514;30.840;2023-05-24T04:23:42;99901.22;;;16.80;69.49
50590;BME280;36547;50.514;30.840;2023-05-24T04:24:45;99904.63;;;16.82;69.24
50590;BME280;36547;50.514;30.840;2023-05-24T04:25:49;99908.90;;;16.84;69.25
50590;BME280;36547;50.514;30.840;2023-05-24T04:26:51;99906.22;;;16.84;69.24
50590;BME280;36547;50.514;30.840;2023-05-24T04:27:53;99912.31;;;16.86;69.06
50590;BME280;36547;50.514;30.840;2023-05-24T04:28:56;99902.44;;;16.87;69.13
50590;BME280;36547;50.514;30.840;2023-05-24T04:29:58;99902.44;;;16.87;69.19
50590;BME280;36547;50.514;30.840;2023-05-24T04:31:01;99904.97;;;16.88;69.07
50590;BME280;36547;50.514;30.840;2023-05-24T04:32:03;99908.38;;;16.90;69.08
50590;BME280;36547;50.514;30.840;2023-05-24T04:33:06;99913.51;;;16.93;69.25
50590;BME280;36547;50.514;30.840;2023-05-24T04:34:09;99904.48;;;16.94;69.19
50590;BME280;36547;50.514;30.840;2023-05-24T04:35:11;99908.02;;;16.95;69.06
50590;BME280;36547;50.514;30.840;2023-05-24T04:36:13;99911.31;;;16.99;69.09
50590;BME280;36547;50.514;30.840;2023-05-24T04:37:17;99911.31;;;16.99;69.28
50590;BME280;36547;50.514;30.840;2023-05-24T04:38:21;99907.64;;;17.00;69.42
50590;BME280;36547;50.514;30.840;2023-05-24T04:39:24;99911.06;;;17.02;69.23
50590;BME280;36547;50.514;30.840;2023-05-24T04:40:26;99904.68;;;17.03;69.41
50590;BME280;36547;50.514;30.840;2023-05-24T04:41:30;99916.16;;;17.05;69.48
50590;BME280;36547;50.514;30.840;2023-05-24T04:42:33;99907.13;;;17.06;69.67
50590;BME280;36547;50.514;30.840;2023-05-24T04:43:36;99911.27;;;17.10;69.71
50590;BME280;36547;50.514;30.840;2023-05-24T04:44:41;99912.00;;;17.12;69.58
50590;BME280;36547;50.514;30.840;2023-05-24T04:45:44;99910.05;;;17.14;69.32
50590;BME280;36547;50.514;30.840;2023-05-24T04:46:46;99917.13;;;17.15;69.45
50590;BME280;36547;50.514;30.840;2023-05-24T04:47:48;99920.51;;;17.17;69.59
50590;BME280;36547;50.514;30.840;2023-05-24T04:48:51;99922.09;;;17.19;69.59
50590;BME280;36547;50.514;30.840;2023-05-24T04:49:54;99924.53;;;17.22;69.48
50590;BME280;36547;50.514;30.840;2023-05-24T04:50:57;99925.38;;;17.23;69.03
50590;BME280;36547;50.514;30.840;2023-05-24T04:51:59;99920.74;;;17.25;69.21
50590;BME280;36547;50.514;30.840;2023-05-24T04:53:01;99916.34;;;17.24;69.05
50590;BME280;36547;50.514;30.840;2023-05-24T04:54:04;99921.59;;;17.25;69.49
50590;BME280;36547;50.514;30.840;2023-05-24T04:55:07;99923.19;;;17.28;69.23
50590;BME280;36547;50.514;30.840;2023-05-24T04:56:09;99927.70;;;17.27;68.83
50590;BME280;36547;50.514;30.840;2023-05-24T04:57:11;99923.91;;;17.30;68.81
50590;BME280;36547;50.514;30.840;2023-05-24T04:58:14;99929.00;;;17.33;68.71
50590;BME280;36547;50.514;30.840;2023-05-24T04:59:17;99929.98;;;17.32;68.58
50590;BME280;36547;50.514;30.840;2023-05-24T05:00:20;99927.05;;;17.35;68.28
50590;BME280;36547;50.514;30.840;2023-05-24T05:01:23;99924.11;;;17.38;68.60
50590;BME280;36547;50.514;30.840;2023-05-24T05:02:25;99930.21;;;17.40;68.52
50590;BME280;36547;50.514;30.840;2023-05-24T05:03:27;99932.77;;;17.42;68.92
50590;BME280;36547;50.514;30.840;2023-05-24T05:04:30;99931.67;;;17.44;69.02
50590;BME280;36547;50.514;30.840;2023-05-24T05:05:33;99932.37;;;17.46;68.91
50590;BME280;36547;50.514;30.840;2023-05-24T05:06:36;99928.70;;;17.47;68.50
50590;BME280;36547;50.514;30.840;2023-05-24T05:07:38;99926.02;;;17.47;68.47
50590;BME280;36547;50.514;30.840;2023-05-24T05:08:40;99926.49;;;17.52;68.24
50590;BME280;36547;50.514;30.840;2023-05-24T05:09:43;99929.91;;;17.54;68.20
50590;BME280;36547;50.514;30.840;2023-05-24T05:10:46;99929.66;;;17.57;68.46
50590;BME280;36547;50.514;30.840;2023-05-24T05:11:49;99932.06;;;17.60;68.71
50590;BME280;36547;50.514;30.840;2023-05-24T05:12:51;99930.10;;;17.62;68.65
50590;BME280;36547;50.514;30.840;2023-05-24T05:13:54;99926.34;;;17.65;68.97
50590;BME280;36547;50.514;30.840;2023-05-24T05:14:57;99927.06;;;17.67;69.08
50590;BME280;36547;50.514;30.840;2023-05-24T05:15:59;99927.66;;;17.71;68.94
50590;BME280;36547;50.514;30.840;2023-05-24T05:17:01;99923.88;;;17.73;69.53
50590;BME280;36547;50.514;30.840;2023-05-24T05:18:03;99932.63;;;17.75;69.21
50590;BME280;36547;50.514;30.840;2023-05-24T05:19:06;99926.14;;;17.78;68.67
50590;BME280;36547;50.514;30.840;2023-05-24T05:20:08;99933.23;;;17.79;68.59
50590;BME280;36547;50.514;30.840;2023-05-24T05:21:11;99924.19;;;17.80;68.06
50590;BME280;36547;50.514;30.840;2023-05-24T05:22:13;99922.22;;;17.82;67.40
50590;BME280;36547;50.514;30.840;2023-05-24T05:23:15;99921.11;;;17.84;67.71
50590;BME280;36547;50.514;30.840;2023-05-24T05:24:18;99930.76;;;17.87;68.03
50590;BME280;36547;50.514;30.840;2023-05-24T05:25:20;99927.94;;;17.88;68.16
50590;BME280;36547;50.514;30.840;2023-05-24T05:26:22;99927.94;;;17.88;68.16
50590;BME280;36547;50.514;30.840;2023-05-24T05:27:25;99927.94;;;17.88;68.15
50590;BME280;36547;50.514;30.840;2023-05-24T05:28:28;99924.11;;;17.91;68.53
50590;BME280;36547;50.514;30.840;2023-05-24T05:29:30;99924.84;;;17.93;68.72
50590;BME280;36547;50.514;30.840;2023-05-24T05:30:33;99923.85;;;17.94;68.64
50590;BME280;36547;50.514;30.840;2023-05-24T05:31:35;99922.02;;;17.94;68.41
50590;BME280;36547;50.514;30.840;2023-05-24T05:32:38;99928.25;;;17.95;67.88
50590;BME280;36547;50.514;30.840;2023-05-24T05:33:40;99929.70;;;17.99;68.05
50590;BME280;36547;50.514;30.840;2023-05-24T05:34:42;99930.42;;;18.01;68.25
50590;BME280;36547;50.514;30.840;2023-05-24T05:35:45;99931.15;;;18.03;68.68
50590;BME280;36547;50.514;30.840;2023-05-24T05:36:47;99926.20;;;18.08;68.72
50590;BME280;36547;50.514;30.840;2023-05-24T05:37:50;99926.92;;;18.10;69.56
50590;BME280;36547;50.514;30.840;2023-05-24T05:38:53;99924.84;;;18.14;68.96
50590;BME280;36547;50.514;30.840;2023-05-24T05:39:55;99934.48;;;18.16;69.41
50590;BME280;36547;50.514;30.840;2023-05-24T05:40:58;99935.17;;;18.18;68.95
50590;BME280;36547;50.514;30.840;2023-05-24T05:42:00;99932.22;;;18.21;68.81
50590;BME280;36547;50.514;30.840;2023-05-24T05:43:03;99930.98;;;18.25;68.37
50590;BME280;36547;50.514;30.840;2023-05-24T05:44:05;99935.12;;;18.29;67.73
50590;BME280;36547;50.514;30.840;2023-05-24T05:45:08;99944.60;;;18.33;67.66
50590;BME280;36547;50.514;30.840;2023-05-24T05:46:11;99940.66;;;18.37;67.44
50590;BME280;36547;50.514;30.840;2023-05-24T05:47:13;99941.25;;;18.41;67.24